Smithers, Canada
Current Conditions -  °F | °C
As of 1:00 PM on Monday 24 Nov 2014 (Local Time) from CYYD Reporting Station
Broken Clouds Broken Clouds  
Wind Chill: 34°   Ceiling: 2000
Heat Index: 34°   Visibility: 8mi
Dew Point: 34°   Wind: 2mph
Humidity: 100%   Direction: NA
Pressure: 29.81"   Gusts: NA
Location:  54.78°N, 127.17°W
Report Text: CYYD 242100Z VRB02KT 8SM SCT005 BKN020 BKN080 01/01 A2981 RMK SF3SF2AC1 VIS NE 3 SLP113
Loading
Personal Weather Stations






























Interactive Weather Map New forecast layout! Learn more

10-Day Weather Forecast

Advertisements
Track Severe Weather on mobile